createdAt,value
2023-04-09T00:03:04.033Z,4.50
2023-04-09T00:07:14.772Z,4.27
2023-04-09T00:11:23.837Z,4.20
2023-04-09T00:15:32.958Z,4.37
2023-04-09T00:19:41.998Z,4.20
2023-04-09T00:23:52.721Z,4.30
2023-04-09T00:28:01.805Z,4.10
2023-04-09T00:32:11.017Z,4.40
2023-04-09T00:36:20.098Z,3.80
2023-04-09T00:40:30.935Z,5.00
2023-04-09T00:44:39.997Z,4.53
2023-04-09T00:48:49.292Z,4.00
2023-04-09T00:52:58.599Z,4.20
2023-04-09T00:57:09.639Z,4.17
2023-04-09T01:01:18.730Z,4.37
2023-04-09T01:05:33.012Z,4.13
2023-04-09T01:09:49.355Z,4.73
2023-04-09T01:14:07.428Z,4.77
2023-04-09T01:18:25.169Z,4.73
2023-04-09T01:22:51.416Z,3.80
2023-04-09T01:27:05.417Z,4.10
2023-04-09T01:31:21.718Z,3.87
2023-04-09T01:35:31.472Z,3.70
2023-04-09T01:39:41.424Z,3.67
2023-04-09T01:43:52.392Z,3.83
2023-04-09T01:48:04.336Z,4.20
2023-04-09T01:52:13.969Z,3.80
2023-04-09T01:56:23.029Z,3.70
2023-04-09T02:00:37.430Z,3.90
2023-04-09T02:04:50.125Z,4.20
2023-04-09T02:09:02.246Z,3.83
2023-04-09T02:13:17.511Z,4.23
2023-04-09T02:17:26.562Z,3.73
2023-04-09T02:21:37.129Z,4.17
2023-04-09T02:25:46.379Z,4.20
2023-04-09T02:29:55.517Z,4.03
2023-04-09T02:34:04.690Z,4.20
2023-04-09T02:38:16.262Z,4.00
2023-04-09T02:42:25.372Z,4.33
2023-04-09T02:46:34.643Z,4.77
2023-04-09T02:50:43.792Z,4.53
2023-04-09T02:54:54.794Z,4.53
2023-04-09T02:59:03.899Z,4.67
2023-04-09T03:03:13.231Z,5.30
2023-04-09T03:07:22.645Z,4.93
2023-04-09T03:11:33.472Z,4.43
2023-04-09T03:15:42.563Z,4.63
2023-04-09T03:19:51.680Z,3.80
2023-04-09T03:24:00.734Z,4.97
2023-04-09T03:28:11.279Z,4.27
2023-04-09T03:32:20.333Z,4.83
2023-04-09T03:36:29.492Z,5.20
2023-04-09T03:40:38.619Z,4.20
2023-04-09T03:44:49.279Z,4.87
2023-04-09T03:48:58.355Z,4.53
2023-04-09T03:53:07.401Z,4.27
2023-04-09T03:57:16.773Z,5.10
2023-04-09T04:01:27.418Z,4.47
2023-04-09T04:05:36.532Z,4.87
2023-04-09T04:09:45.629Z,4.57
2023-04-09T04:13:56.151Z,4.77
2023-04-09T04:18:06.730Z,5.10
2023-04-09T04:22:15.970Z,4.77
2023-04-09T04:26:25.034Z,4.73
2023-04-09T04:30:34.155Z,5.13
2023-04-09T04:34:44.772Z,4.83
2023-04-09T04:38:54.170Z,4.60
2023-04-09T04:43:03.461Z,5.17
2023-04-09T04:47:12.762Z,5.20
2023-04-09T04:51:23.397Z,5.10
2023-04-09T04:55:32.409Z,4.90
2023-04-09T04:59:42.556Z,4.93
2023-04-09T05:03:51.742Z,4.20
2023-04-09T05:08:02.456Z,4.73
2023-04-09T05:12:11.474Z,5.17
2023-04-09T05:16:22.483Z,4.90
2023-04-09T05:20:31.683Z,5.00
2023-04-09T05:24:42.609Z,5.33
2023-04-09T05:28:52.733Z,4.83
2023-04-09T05:33:02.152Z,4.87
2023-04-09T05:37:11.191Z,5.37
2023-04-09T05:41:21.792Z,5.20
2023-04-09T05:45:30.976Z,5.27
2023-04-09T05:49:40.176Z,5.60
2023-04-09T05:53:49.392Z,5.70
2023-04-09T05:58:00.148Z,6.03
2023-04-09T06:02:09.301Z,5.63
2023-04-09T06:06:19.560Z,5.20
2023-04-09T06:10:29.334Z,5.50
2023-04-09T06:14:42.272Z,5.70
2023-04-09T06:18:55.824Z,5.30
2023-04-09T06:23:05.417Z,5.70
2023-04-09T06:27:14.451Z,5.67
2023-04-09T06:31:25.212Z,5.53
2023-04-09T06:35:34.364Z,5.87
2023-04-09T06:39:50.685Z,5.40
2023-04-09T06:44:09.393Z,5.40
2023-04-09T06:48:20.207Z,5.27
2023-04-09T06:52:29.356Z,5.73
2023-04-09T06:56:38.451Z,6.27
2023-04-09T07:00:47.739Z,5.60
2023-04-09T07:04:58.290Z,5.10
2023-04-09T07:09:07.556Z,6.77
2023-04-09T07:13:16.680Z,5.30
2023-04-09T07:17:25.888Z,6.00
2023-04-09T07:21:36.568Z,6.40
2023-04-09T07:25:45.684Z,4.97
2023-04-09T07:29:57.358Z,5.97
2023-04-09T07:34:06.550Z,4.97
2023-04-09T07:38:17.171Z,5.17
2023-04-09T07:42:26.269Z,5.77
2023-04-09T07:46:35.486Z,6.13
2023-04-09T07:50:45.402Z,4.83
2023-04-09T07:54:56.131Z,5.23
2023-04-09T07:59:05.297Z,5.07
2023-04-09T08:03:14.708Z,5.40
2023-04-09T08:07:23.954Z,5.53
2023-04-09T08:11:34.713Z,5.47
2023-04-09T08:15:43.751Z,4.80
2023-04-09T08:19:53.369Z,5.30
2023-04-09T08:24:05.072Z,4.97
2023-04-09T08:28:15.831Z,5.27
2023-04-09T08:32:24.887Z,5.40
2023-04-09T08:36:35.295Z,5.20
2023-04-09T08:40:44.575Z,4.37
2023-04-09T08:44:55.260Z,4.67
2023-04-09T08:49:04.614Z,4.93
2023-04-09T08:53:15.122Z,4.90
2023-04-09T08:57:24.580Z,4.20
2023-04-09T09:01:35.350Z,4.57
2023-04-09T09:05:45.752Z,4.47
2023-04-09T09:09:56.586Z,5.00
2023-04-09T09:14:08.285Z,4.40
2023-04-09T09:18:19.181Z,4.60
2023-04-09T09:22:28.226Z,4.37
2023-04-09T09:26:41.288Z,5.00
2023-04-09T09:30:50.391Z,4.63
2023-04-09T09:35:08.949Z,4.37
2023-04-09T09:39:18.999Z,4.70
2023-04-09T09:43:41.611Z,4.63
2023-04-09T09:47:51.909Z,4.83
2023-04-09T09:52:04.920Z,4.70
2023-04-09T09:56:18.246Z,4.30
2023-04-09T10:00:28.707Z,4.90
2023-04-09T10:04:38.414Z,5.13
2023-04-09T10:08:52.167Z,4.30
2023-04-09T10:13:01.846Z,4.10
2023-04-09T10:17:12.353Z,4.97
2023-04-09T10:21:33.725Z,4.53
2023-04-09T10:25:44.920Z,4.37
2023-04-09T10:29:53.986Z,5.00
2023-04-09T10:34:07.050Z,4.13
2023-04-09T10:38:18.025Z,4.47
2023-04-09T10:42:34.461Z,4.30
2023-04-09T10:46:43.725Z,4.90
2023-04-09T10:50:53.703Z,4.90
2023-04-09T10:55:02.694Z,4.60
2023-04-09T10:59:13.300Z,4.67
2023-04-09T11:03:30.781Z,4.67
2023-04-09T11:07:45.749Z,5.40
2023-04-09T11:11:55.429Z,4.77
2023-04-09T11:16:07.648Z,4.70
2023-04-09T11:20:18.523Z,4.77
2023-04-09T11:24:27.664Z,4.47
2023-04-09T11:28:37.336Z,4.63
2023-04-09T11:32:50.306Z,5.10
2023-04-09T11:37:02.996Z,5.40
2023-04-09T11:41:14.558Z,5.13
2023-04-09T11:45:30.713Z,4.87
2023-04-09T11:49:41.537Z,5.63
2023-04-09T11:53:51.820Z,5.13
2023-04-09T11:58:02.118Z,5.53
2023-04-09T12:02:11.390Z,5.33
2023-04-09T12:06:23.338Z,4.87
2023-04-09T12:10:34.075Z,4.83
2023-04-09T12:14:48.926Z,4.87
2023-04-09T12:18:58.100Z,5.27
2023-04-09T12:23:10.153Z,5.70
2023-04-09T12:27:19.519Z,5.37
2023-04-09T12:31:28.951Z,4.80
2023-04-09T12:35:38.630Z,5.00
2023-04-09T12:39:49.711Z,4.93
2023-04-09T12:44:08.371Z,4.67
2023-04-09T12:48:18.068Z,4.90
2023-04-09T12:52:30.914Z,4.40
2023-04-09T12:56:43.063Z,5.00
2023-04-09T13:00:58.576Z,4.60
2023-04-09T13:15:22.866Z,4.63
2023-04-09T13:19:32.042Z,4.30
2023-04-09T13:23:46.364Z,4.80
2023-04-09T13:27:55.711Z,3.93
2023-04-09T13:32:07.942Z,4.03
2023-04-09T13:36:17.376Z,4.10
2023-04-09T13:40:26.800Z,4.03
2023-04-09T13:44:36.361Z,4.30
2023-04-09T13:48:47.201Z,4.10
2023-04-09T13:52:56.662Z,3.80
2023-04-09T13:57:06.020Z,3.77
2023-04-09T14:01:16.200Z,3.77
2023-04-09T14:05:27.742Z,3.83
2023-04-09T14:09:36.940Z,4.00
2023-04-09T14:13:46.400Z,3.23
2023-04-09T14:17:55.896Z,3.80
2023-04-09T14:22:07.658Z,3.93
2023-04-09T14:26:18.497Z,3.90
2023-04-09T14:30:27.618Z,3.43
2023-04-09T14:34:37.133Z,4.60
2023-04-09T14:38:48.858Z,3.63
2023-04-09T14:43:18.175Z,3.53
2023-04-09T14:47:31.171Z,3.57
2023-04-09T14:51:40.461Z,3.70
2023-04-09T14:55:51.203Z,3.07
2023-04-09T15:00:00.386Z,4.00
2023-04-09T15:04:09.821Z,4.20
2023-04-09T15:08:18.963Z,3.50
2023-04-09T15:12:29.805Z,3.80
2023-04-09T15:16:39.142Z,3.40
2023-04-09T15:20:48.303Z,4.10
2023-04-09T15:24:57.370Z,4.17
2023-04-09T15:29:09.502Z,3.53
2023-04-09T15:33:18.948Z,4.10
2023-04-09T15:37:28.256Z,3.40
2023-04-09T15:41:37.406Z,4.30
2023-04-09T15:45:48.837Z,3.57
2023-04-09T15:49:59.542Z,4.70
2023-04-09T15:54:08.860Z,2.90
2023-04-09T15:58:19.008Z,3.53
2023-04-09T16:02:31.400Z,3.60
2023-04-09T16:06:41.261Z,3.50
2023-04-09T16:10:50.486Z,4.27
2023-04-09T16:15:01.045Z,3.70
2023-04-09T16:19:11.841Z,4.07
2023-04-09T16:23:21.407Z,3.97
2023-04-09T16:27:30.653Z,3.70
2023-04-09T16:31:42.383Z,3.83
2023-04-09T16:36:00.487Z,3.80
2023-04-09T16:40:10.935Z,3.83
2023-04-09T16:44:20.202Z,3.40
2023-04-09T16:48:29.335Z,4.83
2023-04-09T16:52:40.444Z,4.33
2023-04-09T16:56:50.136Z,4.30
2023-04-09T17:00:59.702Z,5.07
2023-04-09T17:05:09.549Z,4.63
2023-04-09T17:09:20.286Z,4.90
2023-04-09T17:13:29.939Z,8.73
2023-04-09T17:17:39.106Z,4.33
2023-04-09T17:21:48.366Z,4.10
2023-04-09T17:26:02.022Z,3.87
2023-04-09T17:30:28.600Z,4.63
2023-04-09T17:34:42.178Z,3.47
2023-04-09T17:38:57.088Z,4.17
2023-04-09T17:57:41.240Z,3.70
2023-04-09T18:01:50.681Z,3.53
2023-04-09T18:06:02.728Z,3.80
2023-04-09T18:10:13.830Z,4.20
2023-04-09T18:14:23.500Z,4.13
2023-04-09T18:18:32.666Z,4.17
2023-04-09T18:22:41.938Z,4.23
2023-04-09T18:26:52.538Z,4.13
2023-04-09T18:35:14.478Z,4.33
2023-04-09T18:39:24.231Z,3.77
2023-04-09T18:43:34.924Z,3.73
2023-04-09T18:47:43.945Z,4.27
2023-04-09T18:51:53.137Z,3.87
2023-04-09T18:56:02.668Z,3.97
2023-04-09T19:00:14.820Z,4.47
2023-04-09T19:04:24.365Z,4.70
2023-04-09T19:08:38.457Z,4.20
2023-04-09T19:12:54.217Z,4.30
2023-04-09T19:17:05.904Z,3.57
2023-04-09T19:21:15.396Z,4.60
2023-04-09T19:25:24.795Z,4.20
2023-04-09T19:29:34.249Z,4.40
2023-04-09T19:33:44.886Z,3.90
2023-04-09T19:37:54.225Z,3.50
2023-04-09T19:42:03.792Z,3.57
2023-04-09T19:46:13.440Z,5.00
2023-04-09T19:50:24.060Z,4.10
2023-04-09T19:54:33.203Z,5.33
2023-04-09T19:58:45.317Z,3.67
2023-04-09T20:02:54.515Z,3.60
2023-04-09T20:07:05.720Z,4.10
2023-04-09T20:11:18.619Z,4.50
2023-04-09T20:15:27.920Z,3.90
2023-04-09T20:19:38.084Z,3.57
2023-04-09T20:23:49.983Z,4.17
2023-04-09T20:27:59.258Z,4.63
2023-04-09T20:32:08.631Z,4.00
2023-04-09T20:36:19.302Z,3.97
2023-04-09T20:40:31.041Z,4.57
2023-04-09T20:44:40.260Z,4.13
2023-04-09T20:48:49.437Z,3.20
2023-04-09T20:52:59.959Z,3.87
2023-04-09T20:57:12.064Z,3.87
2023-04-09T21:01:24.168Z,3.77
2023-04-09T21:05:33.505Z,3.67
2023-04-09T21:09:42.619Z,4.70
2023-04-09T21:13:55.098Z,4.73
2023-04-09T21:18:05.312Z,4.13
2023-04-09T21:22:15.262Z,4.50
2023-04-09T21:26:25.306Z,4.10
2023-04-09T21:30:37.863Z,4.30
2023-04-09T21:40:30.384Z,5.13
2023-04-09T21:49:13.573Z,6.47
2023-04-09T21:53:22.771Z,6.73
2023-04-09T21:57:46.873Z,6.93
2023-04-09T22:01:56.548Z,7.17
2023-04-09T22:06:10.959Z,7.57
2023-04-09T22:10:20.536Z,8.10
2023-04-09T22:14:30.873Z,8.23
2023-04-09T22:18:40.004Z,7.73
2023-04-09T22:22:50.800Z,7.67
2023-04-09T22:27:01.710Z,7.70
2023-04-09T22:31:10.956Z,7.70
2023-04-09T22:35:20.240Z,7.87
2023-04-09T22:39:31.436Z,7.43
2023-04-09T22:43:40.740Z,7.63
2023-04-09T22:47:49.989Z,7.47
2023-04-09T22:51:59.229Z,7.77
2023-04-09T22:56:10.667Z,8.53
2023-04-09T23:00:20.145Z,8.90
2023-04-09T23:04:29.536Z,7.37
2023-04-09T23:08:40.611Z,8.20
2023-04-09T23:12:51.618Z,7.90
2023-04-09T23:17:00.853Z,8.40
2023-04-09T23:21:10.950Z,8.60
2023-04-09T23:25:22.133Z,7.87
2023-04-09T23:29:32.933Z,7.47
2023-04-09T23:33:42.212Z,8.37
2023-04-09T23:37:51.451Z,8.10
2023-04-09T23:42:09.234Z,7.53
2023-04-09T23:46:19.999Z,8.50
2023-04-09T23:50:29.502Z,8.43
2023-04-09T23:54:38.654Z,8.17
2023-04-09T23:58:48.119Z,7.93
